createdAt,value
2023-12-22T00:02:58.389Z,99176.88
2023-12-22T00:08:02.173Z,99190.41
2023-12-22T00:13:04.027Z,99198.75
2023-12-22T00:18:08.091Z,99214.78
2023-12-22T00:23:09.640Z,99215.19
2023-12-22T00:28:11.239Z,99241.91
2023-12-22T00:33:12.999Z,99240.56
2023-12-22T00:38:15.674Z,99219.56
2023-12-22T00:43:17.323Z,99219.81
2023-12-22T00:48:19.450Z,99204.06
2023-12-22T00:53:21.127Z,99180.78
2023-12-22T00:58:22.832Z,99193.63
2023-12-22T01:03:24.523Z,99201.81
2023-12-22T01:08:26.184Z,99200.66
2023-12-22T01:13:27.716Z,99206.22
2023-12-22T01:18:31.245Z,99215.13
2023-12-22T01:23:32.908Z,99238.69
2023-12-22T01:28:35.875Z,99230.41
2023-12-22T01:33:37.550Z,99237.72
2023-12-22T01:38:39.091Z,99267.00
2023-12-22T01:43:40.740Z,99269.13
2023-12-22T01:48:42.695Z,99266.41
2023-12-22T01:53:46.560Z,99282.97
2023-12-22T01:58:48.308Z,99267.59
2023-12-22T02:03:55.665Z,99282.63
2023-12-22T02:08:58.966Z,99269.03
2023-12-22T02:14:00.799Z,99257.31
2023-12-22T02:19:16.539Z,99260.03
2023-12-22T02:24:18.117Z,99254.59
2023-12-22T02:29:20.558Z,99244.75
2023-12-22T02:34:24.077Z,99253.88
2023-12-22T02:39:25.896Z,99256.72
2023-12-22T02:44:28.219Z,99258.88
2023-12-22T02:49:29.760Z,99253.66
2023-12-22T02:54:32.814Z,99230.16
2023-12-22T02:59:34.425Z,99256.97
2023-12-22T03:04:36.085Z,99257.66
2023-12-22T03:09:39.271Z,99263.97
2023-12-22T03:14:41.041Z,99253.75
2023-12-22T03:19:42.649Z,99246.41
2023-12-22T03:24:44.694Z,99243.44
2023-12-22T03:29:46.215Z,99227.91
2023-12-22T03:34:47.799Z,99240.69
2023-12-22T03:39:49.407Z,99232.53
2023-12-22T03:44:50.928Z,99263.38
2023-12-22T03:49:52.593Z,99257.06
2023-12-22T03:54:54.169Z,99291.09
2023-12-22T03:59:55.696Z,99269.34
2023-12-22T04:04:57.320Z,99314.44
2023-12-22T04:09:58.899Z,99303.75
2023-12-22T04:15:00.524Z,99330.81
2023-12-22T04:20:02.672Z,99309.22
2023-12-22T04:25:04.625Z,99304.03
2023-12-22T04:30:06.779Z,99321.34
2023-12-22T04:35:08.763Z,99327.13
2023-12-22T04:40:10.945Z,99330.22
2023-12-22T04:45:12.763Z,99343.41
2023-12-22T04:50:14.418Z,99362.97
2023-12-22T04:55:16.707Z,99349.38
2023-12-22T05:00:18.559Z,99354.28
2023-12-22T05:05:20.228Z,99325.16
2023-12-22T05:10:21.858Z,99318.91
2023-12-22T05:15:23.421Z,99350.22
2023-12-22T05:20:24.965Z,99356.88
2023-12-22T05:25:26.667Z,99373.69
2023-12-22T05:30:28.255Z,99369.44
2023-12-22T05:35:29.854Z,99380.25
2023-12-22T05:40:32.773Z,99386.53
2023-12-22T05:45:34.350Z,99382.38
2023-12-22T05:50:36.047Z,99379.78
2023-12-22T05:55:37.758Z,99373.84
2023-12-22T06:00:39.375Z,99380.94
2023-12-22T06:05:41.264Z,99385.34
2023-12-22T06:10:42.958Z,99389.50
2023-12-22T06:15:44.519Z,99383.00
2023-12-22T06:20:46.107Z,99394.72
2023-12-22T06:25:48.226Z,99399.09
2023-12-22T06:30:49.844Z,99390.91
2023-12-22T06:35:54.737Z,99417.19
2023-12-22T06:40:56.654Z,99431.34
2023-12-22T06:45:59.504Z,99442.34
2023-12-22T06:51:01.030Z,99447.63
2023-12-22T06:56:02.631Z,99458.50
2023-12-22T07:01:04.578Z,99470.47
2023-12-22T07:06:06.382Z,99468.50
2023-12-22T07:11:08.480Z,99473.63
2023-12-22T07:16:12.832Z,99469.09
2023-12-22T07:21:18.981Z,99451.91
2023-12-22T07:26:22.584Z,99449.88
2023-12-22T07:31:24.225Z,99447.38
2023-12-22T07:36:25.869Z,99444.03
2023-12-22T07:41:27.478Z,99465.81
2023-12-22T07:46:29.468Z,99462.28
2023-12-22T07:51:31.075Z,99469.97
2023-12-22T07:56:32.662Z,99482.31
2023-12-22T08:01:34.862Z,99496.06
2023-12-22T08:06:36.971Z,99507.13
2023-12-22T08:11:38.684Z,99516.28
2023-12-22T08:16:40.323Z,99513.69
2023-12-22T08:21:46.230Z,99530.59
2023-12-22T08:26:49.283Z,99520.22
2023-12-22T08:31:51.278Z,99543.56
2023-12-22T08:36:53.086Z,99553.03
2023-12-22T08:41:55.116Z,99541.94
2023-12-22T08:46:56.685Z,99532.84
2023-12-22T08:51:58.321Z,99510.66
2023-12-22T08:56:59.860Z,99514.53
2023-12-22T09:02:01.482Z,99520.25
2023-12-22T09:07:03.078Z,99507.94
2023-12-22T09:12:05.866Z,99499.75
2023-12-22T09:17:07.522Z,99494.19
2023-12-22T09:22:09.079Z,99487.78
2023-12-22T09:27:10.708Z,99478.84
2023-12-22T09:32:12.391Z,99461.66
2023-12-22T09:37:14.062Z,99457.88
2023-12-22T09:42:16.664Z,99457.88
2023-12-22T09:47:19.379Z,99465.34
2023-12-22T09:52:21.962Z,99452.63
2023-12-22T09:57:28.442Z,99458.19
2023-12-22T10:02:32.643Z,99456.22
2023-12-22T10:07:35.266Z,99460.13
2023-12-22T10:12:38.878Z,99453.25
2023-12-22T10:17:41.679Z,99451.91
2023-12-22T10:22:43.328Z,99456.91
2023-12-22T10:27:44.969Z,99459.47
2023-12-22T10:32:46.564Z,99475.09
2023-12-22T10:37:49.446Z,99476.47
2023-12-22T10:42:51.977Z,99477.78
2023-12-22T10:47:54.581Z,99469.69
2023-12-22T10:52:56.319Z,99464.78
2023-12-22T10:58:03.901Z,99467.75
2023-12-22T11:03:09.549Z,99462.97
2023-12-22T11:08:13.163Z,99459.66
2023-12-22T11:13:16.993Z,99466.78
2023-12-22T11:18:20.832Z,99459.44
2023-12-22T11:23:24.776Z,99470.56
2023-12-22T11:28:26.688Z,99457.41
2023-12-22T11:33:30.311Z,99427.44
2023-12-22T11:38:32.920Z,99424.00
2023-12-22T11:43:36.249Z,99421.06
2023-12-22T11:48:38.845Z,99400.56
2023-12-22T11:53:40.445Z,99374.84
2023-12-22T11:58:53.872Z,99370.13
2023-12-22T12:03:59.965Z,99366.25
2023-12-22T12:09:05.566Z,99354.88
2023-12-22T12:14:12.935Z,99341.69
2023-12-22T12:19:15.773Z,99345.63
2023-12-22T12:24:18.832Z,99344.66
2023-12-22T12:29:22.942Z,99334.47
2023-12-22T12:34:24.757Z,99333.88
2023-12-22T12:39:32.397Z,99328.41
2023-12-22T12:44:34.897Z,99329.00
2023-12-22T12:49:36.905Z,99343.84
2023-12-22T12:54:38.598Z,99328.06
2023-12-22T12:59:40.159Z,99348.56
2023-12-22T13:04:41.763Z,99343.72
2023-12-22T13:09:43.336Z,99348.94
2023-12-22T13:14:44.874Z,99350.84
2023-12-22T13:19:46.755Z,99353.06
2023-12-22T13:24:58.190Z,99356.16
2023-12-22T13:29:59.903Z,99367.06
2023-12-22T13:35:01.868Z,99356.75
2023-12-22T13:40:09.614Z,99354.63
2023-12-22T13:45:12.070Z,99367.22
2023-12-22T13:50:17.515Z,99368.25
2023-12-22T13:55:20.747Z,99377.03
2023-12-22T14:00:22.985Z,99378.81
2023-12-22T14:05:24.847Z,99383.81
2023-12-22T14:10:26.579Z,99394.59
2023-12-22T14:15:37.160Z,99394.50
2023-12-22T14:20:44.497Z,99397.47
2023-12-22T14:25:46.374Z,99406.13
2023-12-22T14:30:47.955Z,99405.44
2023-12-22T14:35:49.527Z,99397.59
2023-12-22T14:40:51.202Z,99414.31
2023-12-22T14:45:52.801Z,99420.34
2023-12-22T14:50:55.306Z,99419.06
2023-12-22T14:55:58.803Z,99426.19
2023-12-22T15:01:01.456Z,99434.72
2023-12-22T15:06:04.793Z,99436.13
2023-12-22T15:11:07.779Z,99435.66
2023-12-22T15:16:09.814Z,99440.63
2023-12-22T15:21:22.804Z,99452.66
2023-12-22T15:26:26.685Z,99456.19
2023-12-22T15:31:31.168Z,99467.13
2023-12-22T15:36:33.262Z,99479.13
2023-12-22T15:41:35.552Z,99488.13
2023-12-22T15:46:37.195Z,99493.81
2023-12-22T15:51:38.780Z,99499.28
2023-12-22T15:56:40.318Z,99503.09
2023-12-22T16:01:45.863Z,99510.09
2023-12-22T16:06:47.460Z,99504.28
2023-12-22T16:11:49.071Z,99524.44
2023-12-22T16:16:50.636Z,99529.06
2023-12-22T16:21:53.616Z,99520.41
2023-12-22T16:26:55.221Z,99523.75
2023-12-22T16:31:56.787Z,99521.34
2023-12-22T16:36:58.364Z,99519.00
2023-12-22T16:41:59.931Z,99525.41
2023-12-22T16:47:02.112Z,99531.59
2023-12-22T16:52:03.977Z,99546.22
2023-12-22T16:57:05.629Z,99538.03
2023-12-22T17:02:21.021Z,99550.44
2023-12-22T17:07:31.760Z,99549.25
2023-12-22T17:12:38.103Z,99568.63
2023-12-22T17:17:39.816Z,99554.25
2023-12-22T17:22:41.473Z,99566.22
2023-12-22T17:27:43.314Z,99576.09
2023-12-22T17:32:44.974Z,99582.38
2023-12-22T17:37:46.657Z,99586.53
2023-12-22T17:42:49.916Z,99597.63
2023-12-22T17:47:52.099Z,99601.69
2023-12-22T17:52:53.916Z,99611.00
2023-12-22T17:57:55.493Z,99605.03
2023-12-22T18:02:57.067Z,99605.66
2023-12-22T18:07:58.600Z,99621.19
2023-12-22T18:13:00.198Z,99611.13
2023-12-22T18:18:02.237Z,99632.03
2023-12-22T18:23:04.951Z,99628.59
2023-12-22T18:28:08.302Z,99626.69
2023-12-22T18:33:09.921Z,99649.59
2023-12-22T18:38:11.566Z,99642.00
2023-12-22T18:43:13.459Z,99648.94
2023-12-22T18:48:15.753Z,99636.94
2023-12-22T18:53:17.847Z,99629.81
2023-12-22T18:58:21.403Z,99661.34
2023-12-22T19:03:23.093Z,99661.34
2023-12-22T19:08:24.919Z,99680.31
2023-12-22T19:13:26.527Z,99686.72
2023-12-22T19:18:28.571Z,99685.66
2023-12-22T19:23:30.534Z,99703.09
2023-12-22T19:28:32.120Z,99691.13
2023-12-22T19:33:33.755Z,99691.59
2023-12-22T19:38:35.455Z,99704.63
2023-12-22T19:43:37.020Z,99707.84
2023-12-22T19:48:38.740Z,99714.19
2023-12-22T19:53:40.353Z,99716.81
2023-12-22T19:58:41.952Z,99732.38
2023-12-22T20:03:43.620Z,99730.59
2023-12-22T20:08:47.544Z,99728.56
2023-12-22T20:13:49.334Z,99750.94
2023-12-22T20:18:51.058Z,99755.94
2023-12-22T20:23:54.996Z,99768.44
2023-12-22T20:28:56.859Z,99770.03
2023-12-22T20:33:58.479Z,99772.44
2023-12-22T20:39:00.104Z,99758.31
2023-12-22T20:44:01.667Z,99769.84
2023-12-22T20:49:04.641Z,99772.56
2023-12-22T20:54:06.342Z,99763.16
2023-12-22T20:59:08.991Z,99773.41
2023-12-22T21:04:10.630Z,99770.22
2023-12-22T21:09:12.341Z,99780.53
2023-12-22T21:14:13.991Z,99775.28
2023-12-22T21:19:15.680Z,99783.25
2023-12-22T21:24:17.317Z,99795.00
2023-12-22T21:29:18.974Z,99809.38
2023-12-22T21:34:20.665Z,99800.19
2023-12-22T21:39:22.198Z,99813.72
2023-12-22T21:44:23.851Z,99821.31
2023-12-22T21:49:25.447Z,99819.78
2023-12-22T21:54:27.997Z,99812.31
2023-12-22T21:59:29.595Z,99816.84
2023-12-22T22:04:31.479Z,99843.50
2023-12-22T22:09:33.067Z,99843.72
2023-12-22T22:14:34.671Z,99847.06
2023-12-22T22:19:36.506Z,99845.97
2023-12-22T22:24:38.713Z,99859.22
2023-12-22T22:29:41.934Z,99863.00
2023-12-22T22:34:43.489Z,99868.50
2023-12-22T22:39:45.033Z,99880.41
2023-12-22T22:44:46.565Z,99873.75
2023-12-22T22:49:48.128Z,99873.75
2023-12-22T22:54:49.708Z,99872.44
2023-12-22T22:59:51.293Z,99874.50
2023-12-22T23:04:52.953Z,99895.97
2023-12-22T23:09:54.781Z,99889.19
2023-12-22T23:14:58.585Z,99896.66
2023-12-22T23:20:00.335Z,99888.78
2023-12-22T23:25:01.926Z,99899.19
2023-12-22T23:30:07.568Z,99885.13
2023-12-22T23:35:09.278Z,99876.97
2023-12-22T23:40:11.502Z,99878.09
2023-12-22T23:45:15.546Z,99866.75
2023-12-22T23:50:17.148Z,99889.72
2023-12-22T23:55:18.769Z,99908.91
